Latest Coastal Weather Observations for Samuel Hill

IDQ60701

Issued at 10:42 pm EST Thursday 30 March 2017 (issued every 10 minutes, with the page automatically refreshed every 10 minutes)

About coastal observations | Map of coastal stations | Coastal observations for QLD | Marine services | Other Formats
Station Details ID: 033308 Name: SAMUEL HILL AERO Lat: -22.74 Lon: 150.66 Height: 31.0 m
Data from the previous 72 hours. | See also: Recent months at Samuel Hill
Date/Time
EST
Temp
°C
Wind Pressure Rain since
9am
mm
Weather Cloud Vis
km
Sea
Height
m
Swell
Dir  Spd
kts
Gust
kts
hPa Trend Height
m
Period
s
Dir
30/10:30pm 25.1 NW 1 5 1007.1 - 38.6 - - - - - - -
30/10:00pm 26.2 NW 5 6 1007.1 - 38.6 - - - - - - -
30/09:30pm 26.7 WNW 5 6 1006.7 - 38.6 - - - - - - -
30/09:00pm 27.7 WNW 5 7 1006.6 - 38.6 - - - - - - -
30/08:30pm 28.2 WNW 7 9 1006.3 - 38.6 - - - - - - -
30/08:00pm 28.6 W 10 17 1006.2 - 38.6 - - - - - - -
30/07:30pm 27.6 WNW 4 6 1005.5 - 38.6 - - - - - - -
30/07:00pm 27.9 NW 7 10 1004.9 - 38.6 - - - - - - -
30/06:30pm 28.1 NW 7 11 1004.4 - 38.6 - - - - - - -
30/06:00pm 28.2 WNW 7 10 1004.1 - 38.6 - - - - - - -
30/05:30pm 28.2 WNW 5 11 1003.6 - 38.6 - - - - - - -
30/05:00pm 28.1 WNW 6 9 1003.5 - 38.6 - - - - - - -
30/04:30pm 28.6 NW 9 15 1003.1 - 38.6 - - - - - - -
30/04:00pm 28.3 NW 10 16 1002.8 - 38.6 - - - - - - -
30/03:30pm 28.6 NW 13 21 1002.4 - 38.6 - - - - - - -
30/03:00pm 28.3 NW 15 24 1002.4 - 38.6 - - - - - - -
30/02:48pm 28.9 WNW 15 25 1002.2 - 38.6 - - - - - - -
30/02:30pm 28.5 NW 14 22 1002.2 - 38.6 - - - - - - -
30/02:00pm 27.9 NW 14 25 1002.5 - 38.6 - - - - - - -
30/01:30pm 27.9 NW 12 17 1002.8 - 38.6 - - - - - - -
30/01:00pm 28.8 WNW 16 26 1002.8 - 38.6 - - - - - - -
30/12:56pm 28.6 WNW 15 26 1002.8 - 38.6 - - - - - - -
30/12:30pm 28.8 NW 13 21 1003.1 - 38.6 - - - - - - -
30/12:01pm 28.7 NW 16 27 1003.2 - 38.6 - - - - - - -
30/12:00pm 28.8 NW 16 24 1003.2 - 38.6 Rain - - - - - -
30/11:30am 28.7 WNW 10 17 1003.5 - 38.4 - - - - - - -
30/11:00am 26.9 NNW 10 16 1004.0 - 38.4 - - - - - - -
30/10:30am 25.5 N 8 13 1004.1 - 38.4 - - - - - - -
30/10:00am 24.5 N 12 19 1004.3 - 38.4 - - - - - - -
30/09:30am 24.9 NNW 11 20 1004.5 - 30.0 - - - - - - -
30/09:00am 24.3 NW 9 15 1004.8 - 157.4 Rain - - - - - -
30/08:36am 24.0 NW 15 25 1005.1 - 144.2 - - - - - - -
30/08:30am 23.7 WNW 17 26 1005.1 - 138.8 - - - - - - -
30/08:00am 25.1 NNW 13 23 1004.0 - 102.4 - - - - - - -
30/07:31am 25.8 N 15 25 1003.9 - 91.4 - - - - - - -
30/07:30am 25.9 N 16 25 1003.9 - 91.2 - - - - - - -
30/07:03am 26.0 N 15 26 1003.5 - 90.0 - - - - - - -
30/07:00am 26.0 N 14 22 1003.5 - 89.8 - - - - - - -
30/06:30am 25.3 N 10 17 1003.7 - 89.6 - - - - - - -
30/06:00am 24.7 N 9 13 1004.1 - 89.6 Recent precip. - - - - - -
30/05:30am 25.4 NNE 20 34 1003.9 - 88.6 - - - - - - -
30/05:00am 26.0 NNE 23 35 1002.1 - 88.0 - - - - - - -
30/04:30am 25.7 NNE 21 33 1002.5 - 79.4 - - - - - - -
30/04:00am 25.1 N 17 32 1003.1 - 72.6 - - - - - - -
30/03:58am 25.2 N 16 32 1003.1 - 71.2 - Partly cloudy - - - - -
30/03:33am 25.5 NNE 19 31 1003.2 - 56.0 - Partly cloudy 2 - - - -
30/03:31am 25.7 NNE 19 31 1003.3 - 54.6 - Partly cloudy 4 - - - -
30/03:30am 25.7 NNE 19 31 1003.2 - 54.0 - Partly cloudy 5 - - - -
30/03:12am 26.0 NNE 17 30 1003.5 - 50.2 - Partly cloudy 2 - - - -
30/03:08am 25.9 NNE 16 25 1003.5 - 48.8 - Partly cloudy 2 - - - -
30/03:00am 25.8 NE 15 27 1003.6 - 46.0 Rain Cloudy 4 - - - -
30/02:45am 25.7 N 14 25 1004.2 - 43.8 - Partly cloudy 7 - - - -
30/02:43am 25.4 N 14 23 1004.3 - 43.6 - Partly cloudy 7 - - - -
30/02:30am 24.1 NNW 14 21 1004.8 - 42.2 - Partly cloudy 1 - - - -
30/02:17am 25.0 NNE 19 36 1005.1 - 33.8 - Partly cloudy 1 - - - -
30/02:14am 25.8 NE 16 36 1003.9 - 32.2 - Partly cloudy 2 - - - -
30/02:00am 26.2 NE 17 28 1004.6 - 25.2 - Partly cloudy 5 - - - -
30/01:30am 26.2 NE 15 25 1005.4 - 22.6 - Partly cloudy 7 - - - -
30/01:00am 26.2 NNE 15 25 1006.2 - 19.6 - Partly cloudy 6 - - - -
30/12:30am 26.2 NNE 15 27 1006.4 - 16.0 - Partly cloudy 7 - - - -
30/12:29am 26.2 NE 15 27 1006.4 - 16.0 - Partly cloudy 7 - - - -
30/12:03am 26.2 NNE 14 25 1006.8 - 12.8 - Partly cloudy 7 - - - -
30/12:00am 26.3 NNE 15 25 1006.7 - 12.6 Rain Cloudy 8 - - - -
 
Date/Time
EST
Temp
°C
Wind Pressure Rain since
9am
mm
Weather Cloud Vis
km
Sea
Height
m
Swell
Dir  Spd
kts
Gust
kts
hPa Trend Height
m
Period
s
Dir
29/11:48pm 26.5 NE 15 25 1006.5 - 11.6 - Partly cloudy 10 - - - -
29/11:30pm 26.4 NE 15 25 1006.8 - 10.4 - Partly cloudy 7 - - - -
29/11:25pm 26.6 NE 15 25 1006.9 - 9.8 - Partly cloudy 10 - - - -
29/11:24pm 26.6 NE 15 25 1007.0 - 9.8 - Partly cloudy 10 - - - -
29/11:07pm 26.5 NNE 12 23 1007.3 - 8.6 - Partly cloudy 7 - - - -
29/11:00pm 26.6 NE 14 24 1007.3 - 7.8 - Partly cloudy 9 - - - -
29/10:33pm 27.8 NNE 15 25 1007.7 - 6.6 - Partly cloudy 10 - - - -
29/10:30pm 27.7 NNE 13 22 1007.7 - 6.6 - Partly cloudy 10 - - - -
29/10:00pm 27.7 NE 15 27 1007.7 - 6.6 - Partly cloudy 10 - - - -
29/09:41pm 27.6 NE 16 26 1007.8 - 6.6 - Partly cloudy 10 - - - -
29/09:30pm 27.6 NE 15 24 1007.8 - 6.6 - Partly cloudy 10 - - - -
29/09:00pm 27.6 NE 15 25 1007.8 - 6.6 - Cloudy 10 - - - -
29/08:30pm 27.7 NE 15 25 1007.9 - 6.6 - Partly cloudy 10 - - - -
29/08:29pm 27.7 NE 15 25 1007.9 - 6.6 - Partly cloudy 10 - - - -
29/08:00pm 27.4 NE 14 25 1007.3 - 6.6 - Partly cloudy 10 - - - -
29/07:35pm 27.2 NNE 15 25 1007.2 - 6.6 - Partly cloudy 10 - - - -
29/07:30pm 27.5 NNE 13 22 1007.2 - 6.4 - Partly cloudy 10 - - - -
29/07:00pm 27.1 NE 14 26 1006.7 - 6.4 - Partly cloudy 10 - - - -
29/06:37pm 26.8 NNE 13 23 1006.5 - 6.0 - Partly cloudy 10 - - - -
29/06:30pm 26.6 NNE 10 16 1006.5 - 5.8 - Partly cloudy 10 - - - -
29/06:20pm 26.8 NE 13 18 1006.5 - 5.8 - Partly cloudy 6 - - - -
29/06:00pm 27.1 NNE 12 20 1006.6 - 3.8 Recent precip. Cloudy 10 - - - -
29/05:30pm 27.0 NNE 10 17 1006.3 - 3.6 - Partly cloudy 10 - - - -
29/05:00pm 26.1 NE 10 15 1005.8 - 3.6 - Partly cloudy 10 - - - -
29/04:30pm 27.1 NE 10 17 1006.0 - 3.0 - Partly cloudy 10 - - - -
29/04:00pm 27.2 NNE 12 19 1006.1 - 2.4 - Partly cloudy 10 - - - -
29/03:34pm 27.0 NE 12 19 1005.9 - 2.4 - Partly cloudy 10 - - - -
29/03:30pm 26.9 NE 10 17 1005.9 - 2.4 - Partly cloudy 10 - - - -
29/03:06pm 26.8 NNE 10 16 1005.9 - 1.4 - Partly cloudy 7 - - - -
29/03:00pm 27.0 NE 10 16 1005.9 - 0.8 Showers Cloudy 10 - - - -
29/02:30pm 27.8 NE 14 24 1006.0 - 0.4 - Partly cloudy 10 - - - -
29/02:00pm 27.9 NE 13 21 1006.1 - 0.4 - Partly cloudy 10 - - - -
29/01:30pm 27.9 NE 13 22 1006.4 - 0.4 - Partly cloudy 10 - - - -
29/01:00pm 27.8 NE 12 20 1007.1 - 0.4 - Partly cloudy 10 - - - -
29/12:30pm 28.0 NE 10 17 1007.7 - 0.4 - Partly cloudy 10 - - - -
29/12:00pm 27.8 NE 12 19 1007.7 - 0.4 - Cloudy 10 - - - -
29/11:30am 27.8 NE 13 21 1008.2 - 0.4 - Partly cloudy 10 - - - -
29/11:00am 27.6 NE 9 15 1008.7 - 0.4 - Partly cloudy 10 - - - -
29/10:30am 27.0 NE 12 19 1009.1 - 0.2 - Partly cloudy 10 - - - -
29/10:00am 27.1 NE 9 13 1009.0 - 0.2 - Partly cloudy 10 - - - -
29/09:30am 27.0 NE 11 17 1009.2 - 0.0 - Partly cloudy 10 - - - -
29/09:15am 26.7 NE 9 16 1009.1 - 0.0 - Partly cloudy 10 - - - -
29/09:00am 26.2 ENE 7 13 1008.8 - 11.8 Rain Cloudy 10 - - - -
29/08:58am 26.2 ENE 7 11 1008.8 - 11.8 - Partly cloudy 10 - - - -
29/08:30am 25.9 NE 10 17 1008.5 - 11.6 - Partly cloudy 10 - - - -
29/08:05am 24.9 NNE 7 10 1008.9 - 11.2 - Partly cloudy 10 - - - -
29/08:00am 24.5 NNE 8 15 1008.8 - 11.0 - Partly cloudy 10 - - - -
29/07:44am 24.4 NNE 15 38 1009.0 - 9.2 - Partly cloudy 3 - - - -
29/07:34am 26.4 NE 13 27 1008.8 - 5.8 - Partly cloudy 6 - - - -
29/07:30am 27.3 NE 11 18 1008.7 - 4.8 - Partly cloudy 10 - - - -
29/07:00am 27.4 NE 10 16 1008.1 - 4.8 - Partly cloudy 10 - - - -
29/06:30am 27.2 NE 10 16 1007.8 - 4.8 - Partly cloudy 10 - - - -
29/06:00am 26.9 NE 10 18 1007.5 - 4.8 Showers Cloudy 10 - - - -
29/05:30am 26.6 NE 9 16 1007.2 - 4.6 - Partly cloudy 10 - - - -
29/05:00am 26.9 NE 9 17 1007.0 - 4.4 - Partly cloudy 10 - - - -
29/04:30am 27.2 NE 9 16 1006.5 - 4.2 - Partly cloudy 10 - - - -
29/04:00am 27.6 ENE 9 19 1006.4 - 4.0 - Partly cloudy 10 - - - -
29/03:30am 27.6 NE 11 15 1006.2 - 4.0 - Partly cloudy 10 - - - -
29/03:00am 27.5 ENE 9 16 1006.2 - 4.0 - Cloudy 10 - - - -
29/02:30am 27.5 ENE 11 16 1006.5 - 4.0 - Partly cloudy 10 - - - -
29/02:00am 27.5 ENE 11 18 1006.9 - 4.0 - Partly cloudy 10 - - - -
29/01:30am 27.5 ENE 11 15 1007.3 - 4.0 - Partly cloudy 10 - - - -
29/01:00am 27.5 ENE 11 16 1007.3 - 4.0 - Partly cloudy 10 - - - -
29/12:30am 27.5 ENE 10 18 1007.1 - 4.0 - Partly cloudy 10 - - - -
29/12:00am 27.6 ENE 11 20 1007.7 - 4.0 - Cloudy 10 - - - -
 
Date/Time
EST
Temp
°C
Wind Pressure Rain since
9am
mm
Weather Cloud Vis
km
Sea
Height
m
Swell
Dir  Spd
kts
Gust
kts
hPa Trend Height
m
Period
s
Dir
28/11:30pm 27.6 ENE 13 20 1007.8 - 4.0 - Partly cloudy 10 - - - -
28/11:00pm 27.6 ENE 13 21 1008.0 - 4.0 - Partly cloudy 10 - - - -
28/10:30pm 27.7 ENE 11 20 1007.9 - 4.0 - Partly cloudy 10 - - - -
28/10:00pm 27.5 ENE 10 15 1008.2 - 4.0 - Partly cloudy 10 - - - -
28/09:30pm 27.1 ENE 11 22 1008.3 - 4.0 - Partly cloudy 10 - - - -
28/09:00pm 27.7 ENE 11 17 1007.9 - 4.0 Recent precip. Cloudy 10 - - - -
28/08:30pm 27.6 E 12 19 1007.7 - 4.0 - Partly cloudy 10 - - - -
28/08:00pm 27.6 E 11 20 1007.3 - 3.8 - Partly cloudy 10 - - - -
28/07:30pm 27.6 E 11 17 1007.2 - 3.8 - Partly cloudy 10 - - - -
28/07:00pm 27.4 E 12 18 1006.7 - 3.8 - Partly cloudy 10 - - - -
28/06:30pm 27.1 E 12 21 1006.3 - 3.8 - Partly cloudy 10 - - - -
28/06:00pm 27.2 E 10 19 1006.0 - 3.8 Showers Cloudy 10 - - - -
28/05:30pm 27.5 E 13 21 1006.1 - 3.4 - Partly cloudy 10 - - - -
28/05:00pm 27.6 E 12 16 1005.9 - 3.4 - Partly cloudy 10 - - - -
28/04:30pm 27.6 E 10 14 1005.6 - 3.4 - Partly cloudy 10 - - - -
28/04:00pm 27.6 E 12 22 1005.5 - 3.4 - Partly cloudy 10 - - - -
28/03:30pm 27.5 ENE 11 16 1005.5 - 3.4 - Partly cloudy 10 - - - -
28/03:00pm 27.6 E 11 19 1005.4 - 3.4 - Cloudy 10 - - - -
28/02:30pm 27.3 E 12 19 1005.5 - 3.4 - Partly cloudy 10 - - - -
28/02:00pm 27.3 ENE 11 16 1005.5 - 3.4 - Partly cloudy 10 - - - -
28/01:30pm 26.7 ENE 10 16 1005.7 - 3.4 - Partly cloudy 10 - - - -
28/01:26pm 26.6 E 10 16 1005.9 - 3.4 - Partly cloudy 10 - - - -
28/01:15pm 26.3 E 8 13 1006.1 - 3.4 - Partly cloudy 10 - - - -
28/01:11pm 26.2 E 9 16 1006.2 - 3.2 - Partly cloudy 10 - - - -
28/01:00pm 26.0 E 9 17 1006.3 - 3.2 - Partly cloudy 7 - - - -
28/12:48pm 26.4 E 13 19 1006.6 - 2.2 - Partly cloudy 7 - - - -
28/12:33pm 26.4 E 11 17 1006.4 - 1.6 - Partly cloudy 10 - - - -
28/12:30pm 26.4 E 12 19 1006.5 - 1.4 - Partly cloudy 9 - - - -
28/12:22pm 26.4 E 10 16 1006.6 - 1.0 - Partly cloudy 7 - - - -
28/12:00pm 26.9 E 11 17 1007.0 - 0.2 Rain Cloudy 10 - - - -
28/11:30am 27.6 E 11 18 1007.4 - 0.0 - Partly cloudy 10 - - - -
28/11:00am 27.2 E 12 20 1007.9 - 0.0 - Partly cloudy 10 - - - -
28/10:30am 26.8 E 13 21 1008.0 - 0.0 - Partly cloudy 10 - - - -
28/10:00am 26.8 ENE 12 19 1008.2 - 0.0 - Partly cloudy 10 - - - -
28/09:30am 26.3 E 10 16 1008.1 - 0.0 - Partly cloudy 10 - - - -
28/09:00am 26.3 E 8 13 1008.2 - 60.4 Showers Cloudy 10 - - - -
28/08:54am 25.6 ENE 10 18 1008.1 - 60.4 - Partly cloudy 10 - - - -
28/08:30am 25.5 ENE 14 25 1007.9 - 59.0 - Partly cloudy 3 - - - -
28/08:24am 25.8 E 15 25 1007.8 - 56.4 - Partly cloudy 4 - - - -
28/08:16am 26.1 E 12 24 1007.5 - 55.8 - Partly cloudy 6 - - - -
28/08:00am 26.4 ESE 13 21 1007.2 - 55.2 - Partly cloudy 10 - - - -
28/07:45am 26.3 E 10 18 1007.2 - 55.0 - Partly cloudy 10 - - - -
28/07:34am 25.9 E 9 19 1007.1 - 55.0 - Partly cloudy 10 - - - -
28/07:30am 25.8 E 8 13 1007.1 - 55.0 - Partly cloudy 10 - - - -
28/07:24am 25.4 E 7 13 1006.9 - 55.0 - Partly cloudy 7 - - - -
28/07:20am 25.3 ESE 8 13 1006.9 - 54.8 - Partly cloudy 8 - - - -
28/07:00am 24.9 ESE 9 18 1006.9 - 54.0 - Partly cloudy 10 - - - -
28/06:30am 23.9 ESE 10 16 1006.8 - 53.8 - Partly cloudy 10 - - - -
28/06:00am 24.2 E 11 16 1006.8 - 51.4 Rain Cloudy 9 - - - -
28/05:37am 24.3 E 11 19 1006.6 - 50.0 - Partly cloudy 10 - - - -
28/05:30am 24.4 E 11 19 1006.4 - 49.6 - Partly cloudy 10 - - - -
28/05:28am 24.3 E 12 18 1006.3 - 49.6 - Partly cloudy 8 - - - -
28/05:11am 24.3 ENE 14 25 1006.1 - 47.4 - Partly cloudy 2 - - - -
28/05:08am 24.3 ENE 13 25 1006.0 - 46.2 - Partly cloudy 2 - - - -
28/05:00am 24.1 E 12 19 1006.2 - 42.2 - Partly cloudy 3 - - - -
28/04:57am 24.2 E 13 20 1006.2 - 40.0 - Partly cloudy 4 - - - -
28/04:42am 24.8 E 15 26 1006.1 - 36.8 - Partly cloudy 2 - - - -
28/04:38am 26.2 E 12 23 1006.0 - 35.4 - Partly cloudy 5 - - - -
28/04:30am 27.2 E 13 21 1005.3 - 32.4 - Partly cloudy 10 - - - -
28/04:00am 26.8 ESE 12 19 1005.2 - 32.4 - Partly cloudy 10 - - - -
28/03:50am 26.9 ESE 15 25 1005.1 - 32.4 - Partly cloudy 10 - - - -
28/03:30am 26.7 E 14 21 1005.7 - 32.4 - Partly cloudy 10 - - - -
28/03:17am 26.5 E 15 25 1005.6 - 32.4 - Partly cloudy 10 - - - -
28/03:00am 26.8 ESE 13 21 1005.8 - 32.4 Rain Cloudy 10 - - - -
28/02:30am 26.3 ESE 13 25 1006.0 - 32.4 - Partly cloudy 10 - - - -
28/02:24am 26.3 ESE 15 26 1006.0 - 32.4 - Partly cloudy 10 - - - -
28/02:21am 26.4 ESE 15 26 1005.9 - 32.4 - Partly cloudy 10 - - - -
28/02:13am 26.3 ESE 13 24 1006.0 - 32.2 - Partly cloudy 7 - - - -
28/02:00am 26.8 ESE 13 21 1006.2 - 30.8 - Partly cloudy 10 - - - -
28/01:30am 26.4 ESE 12 19 1006.4 - 30.8 - Partly cloudy 10 - - - -
28/01:00am 26.6 ESE 14 20 1006.6 - 30.0 - Partly cloudy 10 - - - -
28/12:30am 26.6 ESE 13 22 1006.8 - 30.0 - Partly cloudy 10 - - - -
28/12:00am 26.5 ESE 14 25 1007.2 - 29.8 Showers Cloudy 10 - - - -
 
Date/Time
EST
Temp
°C
Wind Pressure Rain since
9am
mm
Weather Cloud Vis
km
Sea
Height
m
Swell
Dir  Spd
kts
Gust
kts
hPa Trend Height
m
Period
s
Dir
27/11:30pm 26.0 SE 13 22 1007.5 - 29.6 - Partly cloudy 10 - - - -
27/11:14pm 26.0 ESE 14 24 1007.4 - 29.4 - Partly cloudy 10 - - - -
27/11:04pm 26.1 SE 11 16 1007.6 - 29.2 - Partly cloudy 10 - - - -
27/11:00pm 26.1 SE 9 16 1007.5 - 29.2 - Partly cloudy 9 - - - -
27/10:46pm 26.0 SE 10 19 1007.8 - 28.8 - Partly cloudy 7 - - - -

Other Formats:

Comma delimited format used in spreadsheet applications
http://www.bom.gov.au/fwo/IDQ60701/IDQ60701.94370.axf

JavaScript Object Notation format (JSON) in row-major order
http://www.bom.gov.au/fwo/IDQ60701/IDQ60701.94370.json